Terminal Aerodrome Forecast
Issued by NWS

Home | Current Version | Previous Version | Text Only | Print | Product List | Glossary On
Versions: 1 2 3 4 5 6 7 8 9 10 11 12 13 14 15 16
797
FTUS41 KBTV 271142
TAFSLK
TAF
KSLK 271142Z 2712/2812 VRB03KT 3SM BR BKN001
      TEMPO 2712/2713 6SM BR SCT001 SCT250
     FM271300 19006KT P6SM SCT250
     FM271800 17012G20KT P6SM SCT250
     FM280000 18009KT P6SM SCT250
     FM280700 20007KT P6SM VCSH OVC035=

USA.gov is the U.S. government's official web portal to all federal, state and local government web resources and services.